Time;durP1;ratioP1;P1;durP2;ratioP2;P2;SDS_P1;SDS_P2;PMS_P1;PMS_P2;Temp;Humidity;BMP_temperature;BMP_pressure;BME280_temperature;BME280_humidity;BME280_pressure;Samples;Min_cycle;Max_cycle;Signal;HPM_P1;HPM_P2
2023/02/28 00:00:26;;;;;;;19.17;13.95;;;;;;;-1.40;100.00;-17989.31;5073124;28;20041;-84
2023/02/28 00:02:51;;;;;;;19.25;13.40;;;;;;;-1.36;100.00;-17990.44;5071177;28;20054;-85
2023/02/28 00:05:19;;;;;;;21.17;14.70;;;;;;;-1.27;100.00;-17992.78;5066494;28;20082;-85
2023/02/28 00:07:45;;;;;;;20.92;14.40;;;;;;;-1.23;100.00;-17994.03;5057434;28;20040;-84
2023/02/28 00:10:14;;;;;;;21.95;13.90;;;;;;;-1.19;100.00;-17995.16;5066775;28;21248;-84
2023/02/28 00:12:40;;;;;;;20.33;14.00;;;;;;;-1.17;100.00;-17995.72;5060017;28;20045;-84
2023/02/28 00:15:07;;;;;;;21.52;14.48;;;;;;;-1.17;100.00;-17995.72;5065070;28;20316;-85
2023/02/28 00:17:32;;;;;;;19.00;14.05;;;;;;;-1.17;100.00;-17995.56;5067873;28;20033;-84
2023/02/28 00:20:11;;;;;;;19.05;14.07;;;;;;;-1.06;100.00;-17998.47;5066547;28;20062;-85
2023/02/28 00:22:41;;;;;;;19.30;13.57;;;;;;;-0.97;100.00;-18000.97;5068556;28;20055;-84
2023/02/28 00:25:08;;;;;;;21.30;13.43;;;;;;;-0.95;100.00;-18001.53;5071592;28;20048;-85
2023/02/28 00:27:35;;;;;;;18.55;13.68;;;;;;;-0.95;100.00;-18001.53;5066318;28;20040;-85
2023/02/28 00:30:00;;;;;;;18.38;13.70;;;;;;;-0.93;100.00;-18002.09;5050793;28;20032;-85
2023/02/28 00:32:26;;;;;;;19.90;13.93;;;;;;;-0.94;100.00;-18001.94;5071498;28;20047;-85
2023/02/28 00:34:51;;;;;;;19.65;13.80;;;;;;;-0.96;100.00;-18001.38;5068005;28;20032;-85
2023/02/28 00:37:17;;;;;;;22.00;15.18;;;;;;;-0.91;100.00;-18002.63;5046949;28;20045;-84
2023/02/28 00:39:42;;;;;;;21.70;14.93;;;;;;;-0.91;100.00;-18002.63;5056639;28;20037;-84
2023/02/28 00:42:08;;;;;;;19.40;14.38;;;;;;;-0.88;100.00;-18003.47;5064931;28;20068;-85
2023/02/28 00:44:34;;;;;;;19.92;14.95;;;;;;;-0.87;100.00;-18003.75;5066483;28;20040;-85
2023/02/28 00:47:00;;;;;;;21.08;14.20;;;;;;;-0.76;100.00;-18006.66;5063499;28;20755;-85
2023/02/28 00:49:26;;;;;;;19.90;13.88;;;;;;;-0.75;100.00;-18007.06;5067167;28;20114;-85
2023/02/28 00:51:53;;;;;;;21.92;13.70;;;;;;;-0.65;100.00;-18009.56;5069678;28;20131;-85
2023/02/28 00:54:19;;;;;;;19.55;13.63;;;;;;;-0.69;100.00;-18008.59;5052257;28;20040;-84
2023/02/28 00:56:45;;;;;;;19.75;14.35;;;;;;;-0.63;100.00;-18010.13;5051686;28;20067;-84
2023/02/28 00:59:12;;;;;;;19.95;14.57;;;;;;;-0.59;100.00;-18011.38;5070222;28;20045;-85
2023/02/28 01:01:38;;;;;;;19.08;14.32;;;;;;;-0.58;100.00;-18011.50;5060041;28;21031;-85
2023/02/28 01:04:04;;;;;;;17.85;13.02;;;;;;;-0.59;100.00;-18011.38;5045968;28;20103;-85
2023/02/28 01:06:30;;;;;;;18.15;13.43;;;;;;;-0.57;100.00;-18011.78;5067051;28;20123;-84
2023/02/28 01:08:58;;;;;;;20.67;14.23;;;;;;;-0.51;100.00;-18013.44;5047831;28;20140;-85
2023/02/28 01:11:23;;;;;;;16.23;11.87;;;;;;;-0.42;100.00;-18015.94;5064335;28;20047;-85
2023/02/28 01:13:49;;;;;;;17.58;12.20;;;;;;;-0.41;100.00;-18016.22;5067568;28;20350;-84
2023/02/28 01:16:15;;;;;;;20.55;13.80;;;;;;;-0.40;100.00;-18016.38;5077779;28;20055;-84
2023/02/28 01:18:40;;;;;;;18.70;13.15;;;;;;;-0.36;100.00;-18017.59;5055165;28;20101;-84
2023/02/28 01:21:09;;;;;;;20.77;13.57;;;;;;;-0.32;100.00;-18018.72;5059262;28;20048;-84
2023/02/28 01:23:34;;;;;;;19.63;12.93;;;;;;;-0.33;100.00;-18018.44;5063093;28;20818;-84
2023/02/28 01:26:12;;;;;;;19.13;14.30;;;;;;;-0.32;100.00;-18018.72;5064030;28;20131;-84
2023/02/28 01:28:37;;;;;;;19.65;12.93;;;;;;;-0.28;100.00;-18019.81;5064946;28;20826;-84
2023/02/28 01:31:03;;;;;;;17.33;12.80;;;;;;;-0.29;100.00;-18019.41;5067058;28;20063;-83
2023/02/28 01:33:28;;;;;;;17.70;13.00;;;;;;;-0.28;100.00;-18019.81;5060165;28;20059;-85
2023/02/28 01:36:02;;;;;;;18.52;13.57;;;;;;;-0.27;100.00;-18020.09;5060776;28;20063;-84
2023/02/28 01:38:27;;;;;;;21.08;14.00;;;;;;;-0.25;100.00;-18020.66;5046295;28;20037;-84
2023/02/28 01:40:53;;;;;;;18.05;12.77;;;;;;;-0.23;100.00;-18021.06;5065386;28;20056;-84
2023/02/28 01:43:24;;;;;;;17.35;12.85;;;;;;;-0.23;100.00;-18021.06;5065692;28;20538;-85
2023/02/28 01:45:49;;;;;;;18.35;13.18;;;;;;;-0.21;100.00;-18021.63;5042135;28;20036;-85
2023/02/28 01:48:15;;;;;;;20.23;13.15;;;;;;;-0.21;100.00;-18021.50;5062807;28;20033;-85
2023/02/28 01:50:44;;;;;;;16.85;12.98;;;;;;;-0.21;100.00;-18021.50;5058057;28;20045;-83
2023/02/28 01:53:15;;;;;;;;;;;;;;;-0.21;100.00;-18021.63;5057500;28;20475;-85
2023/02/28 01:55:44;;;;;;;17.20;13.43;;;;;;;-0.33;100.00;-18018.44;5067414;28;19919;-85
2023/02/28 01:58:10;;;;;;;;;;;;;;;-0.25;100.00;-18020.53;5066758;28;20047;-85
2023/02/28 02:00:35;;;;;;;20.13;13.52;;;;;;;-0.31;100.00;-18018.84;5046676;28;19920;-84
2023/02/28 02:03:08;;;;;;;19.30;13.13;;;;;;;-0.29;100.00;-18019.56;5074322;28;20044;-84
2023/02/28 02:05:36;;;;;;;18.23;13.98;;;;;;;-0.21;100.00;-18021.50;5050905;28;20032;-84
2023/02/28 02:08:06;;;;;;;18.27;13.52;;;;;;;-0.16;100.00;-18022.88;5065716;28;20067;-84
2023/02/28 02:10:42;;;;;;;19.10;13.23;;;;;;;-0.11;100.00;-18024.25;5067380;28;20020;-85
2023/02/28 02:13:22;;;;;;;20.08;12.90;;;;;;;-0.06;100.00;-18025.66;5068981;28;20094;-84
2023/02/28 02:15:57;;;;;;;19.48;12.63;;;;;;;-0.10;100.00;-18024.69;5021231;28;20040;-84
2023/02/28 02:18:28;;;;;;;19.13;13.50;;;;;;;-0.08;100.00;-18025.22;5068116;28;20503;-83
2023/02/28 02:21:11;;;;;;;21.48;12.05;;;;;;;-0.10;100.00;-18024.53;5067116;28;20138;-84
2023/02/28 02:24:11;;;;;;;16.70;12.77;;;;;;;-0.08;100.00;-18025.09;5049326;28;20049;-83
2023/02/28 02:26:58;;;;;;;19.60;12.88;;;;;;;-0.06;100.00;-18025.66;5061486;28;20052;-85
2023/02/28 02:29:45;;;;;;;16.75;12.18;;;;;;;-0.05;100.00;-18025.94;5063117;28;20431;-85
2023/02/28 02:32:28;;;;;;;20.70;13.20;;;;;;;-0.08;100.00;-18025.09;5061434;28;20068;-83
2023/02/28 02:35:24;;;;;;;19.60;12.05;;;;;;;-0.07;100.00;-18025.38;5031778;28;20106;-84
2023/02/28 02:37:57;;;;;;;16.73;12.35;;;;;;;-0.09;100.00;-18024.94;5054210;28;20048;-84
2023/02/28 02:40:29;;;;;;;17.98;12.18;;;;;;;-0.10;100.00;-18024.69;5069000;28;20177;-85
2023/02/28 02:43:01;;;;;;;15.57;11.52;;;;;;;-0.04;100.00;-18026.19;5073011;28;20035;-85
2023/02/28 02:45:35;;;;;;;19.77;12.13;;;;;;;-0.05;100.00;-18025.94;5071129;28;20040;-85
2023/02/28 02:48:02;;;;;;;17.10;12.10;;;;;;;-0.12;100.00;-18023.97;5066775;28;20683;-85
2023/02/28 02:50:42;;;;;;;18.38;12.95;;;;;;;-0.11;100.00;-18024.41;5066534;28;20033;-84
2023/02/28 02:53:09;;;;;;;16.05;12.30;;;;;;;-0.08;100.00;-18025.22;5071973;28;20032;-85
2023/02/28 02:55:39;;;;;;;19.20;12.77;;;;;;;-0.05;100.00;-18025.94;5065544;28;20131;-85
2023/02/28 02:58:10;;;;;;;17.40;13.30;;;;;;;-0.05;100.00;-18025.94;5062432;28;20041;-84
2023/02/28 03:00:43;;;;;;;16.60;12.15;;;;;;;-0.03;100.00;-18026.47;5066510;28;20040;-85
2023/02/28 03:03:10;;;;;;;19.10;12.35;;;;;;;-0.04;100.00;-18026.34;5064003;28;20453;-85
2023/02/28 03:05:45;;;;;;;18.05;11.82;;;;;;;-0.03;100.00;-18026.47;5067203;28;20458;-85
2023/02/28 03:08:11;;;;;;;17.10;11.23;;;;;;;-0.02;100.00;-18026.75;5070232;28;20029;-84
2023/02/28 03:10:36;;;;;;;14.90;10.68;;;;;;;-0.03;100.00;-18026.63;5068022;28;20124;-84
2023/02/28 03:13:36;;;;;;;18.02;10.88;;;;;;;0.02;100.00;-18027.88;5056180;28;20040;-84
2023/02/28 03:16:35;;;;;;;14.35;9.68;;;;;;;0.05;100.00;-18028.69;5052246;28;20045;-85
2023/02/28 03:19:10;;;;;;;13.18;9.48;;;;;;;0.04;100.00;-18028.41;5052090;28;20048;-85
2023/02/28 03:21:57;;;;;;;11.80;9.23;;;;;;;0.00;100.00;-18027.31;5067566;28;20040;-85
2023/02/28 03:24:51;;;;;;;14.27;9.77;;;;;;;-0.01;100.00;-18027.03;5064585;28;20081;-85
2023/02/28 03:27:24;;;;;;;13.32;9.70;;;;;;;-0.04;100.00;-18026.19;5037977;28;21132;-85
2023/02/28 03:30:04;;;;;;;12.13;8.73;;;;;;;-0.03;100.00;-18026.47;5063587;28;20140;-85
2023/02/28 03:32:36;;;;;;;14.55;8.80;;;;;;;0.07;100.00;-18029.13;5059493;28;20029;-85
2023/02/28 03:35:11;;;;;;;13.98;8.73;;;;;;;0.11;100.00;-18030.22;5060841;28;20048;-86
2023/02/28 03:37:42;;;;;;;12.43;8.48;;;;;;;0.14;100.00;-18031.19;5060783;28;20041;-86
2023/02/28 03:40:14;;;;;;;11.55;9.43;;;;;;;0.15;100.00;-18031.47;5045111;28;20476;-86
2023/02/28 03:42:43;;;;;;;12.57;9.23;;;;;;;0.17;100.00;-18031.88;5068127;28;20097;-85
2023/02/28 03:45:15;;;;;;;14.18;9.40;;;;;;;0.19;100.00;-18032.56;5036790;28;20048;-85
2023/02/28 03:47:56;;;;;;;14.30;9.00;;;;;;;0.21;100.00;-18033.13;5066569;28;20036;-85
2023/02/28 03:50:43;;;;;;;13.18;9.30;;;;;;;0.20;100.00;-18032.84;5050818;28;20021;-85
2023/02/28 03:53:25;;;;;;;13.18;9.30;;;;;;;0.16;100.00;-18031.75;5047431;28;20035;-86
2023/02/28 03:56:03;;;;;;;12.35;9.95;;;;;;;0.10;100.00;-18030.09;5043461;28;20072;-86
2023/02/28 03:58:53;;;;;;;12.30;9.43;;;;;;;0.08;100.00;-18029.38;5052522;28;20036;-86
2023/02/28 04:01:26;;;;;;;13.93;10.25;;;;;;;0.07;100.00;-18029.25;5063092;28;20518;-85
2023/02/28 04:03:52;;;;;;;13.57;9.65;;;;;;;0.03;100.00;-18028.16;5046581;28;20131;-85
2023/02/28 04:06:22;;;;;;;14.05;10.60;;;;;;;0.03;100.00;-18028.16;5066880;28;20586;-85
2023/02/28 04:08:49;;;;;;;15.27;10.15;;;;;;;0.05;100.00;-18028.56;5069456;28;20362;-85
2023/02/28 04:11:19;;;;;;;13.02;9.40;;;;;;;0.05;100.00;-18028.56;5068916;28;20531;-85
2023/02/28 04:13:45;;;;;;;13.20;10.40;;;;;;;0.05;100.00;-18028.69;5049972;28;20045;-85
2023/02/28 04:16:11;;;;;;;16.95;11.07;;;;;;;0.03;100.00;-18028.16;5067761;28;20047;-85
2023/02/28 04:18:40;;;;;;;14.18;10.63;;;;;;;0.02;100.00;-18027.88;5048813;28;20044;-85
2023/02/28 04:21:06;;;;;;;15.27;10.70;;;;;;;0.02;100.00;-18027.88;5065591;28;20110;-84
2023/02/28 04:23:32;;;;;;;16.65;11.57;;;;;;;0.01;100.00;-18027.59;5046715;28;20056;-85
2023/02/28 04:25:58;;;;;;;13.38;9.45;;;;;;;0.00;100.00;-18027.31;5050483;28;20044;-84
2023/02/28 04:28:24;;;;;;;15.32;10.43;;;;;;;-0.05;100.00;-18026.06;5068247;28;20037;-84
2023/02/28 04:31:00;;;;;;;15.98;11.43;;;;;;;-0.08;100.00;-18025.09;5057014;28;20097;-83
2023/02/28 04:33:26;;;;;;;14.23;11.00;;;;;;;-0.10;100.00;-18024.53;5072715;28;20074;-84
2023/02/28 04:36:04;;;;;;;13.98;9.95;;;;;;;-0.04;100.00;-18026.19;5061978;28;20132;-83
2023/02/28 04:38:32;;;;;;;17.67;10.82;;;;;;;-0.04;100.00;-18026.34;5063069;28;20032;-83
2023/02/28 04:40:59;;;;;;;14.10;10.57;;;;;;;-0.06;100.00;-18025.66;5057622;28;22274;-84
2023/02/28 04:43:26;;;;;;;17.25;10.55;;;;;;;-0.03;100.00;-18026.63;5071073;28;20029;-85
2023/02/28 04:45:51;;;;;;;14.98;10.85;;;;;;;-0.05;100.00;-18026.06;5070456;28;20140;-84
2023/02/28 04:48:16;;;;;;;19.33;11.43;;;;;;;0.00;100.00;-18027.31;5068597;28;20068;-83
2023/02/28 04:50:42;;;;;;;13.50;10.85;;;;;;;-0.01;100.00;-18027.03;5061002;28;20029;-84
2023/02/28 04:53:07;;;;;;;14.93;10.38;;;;;;;0.00;100.00;-18027.31;5069969;28;20115;-83
2023/02/28 04:55:33;;;;;;;16.52;10.93;;;;;;;-0.07;100.00;-18025.50;5072088;28;20438;-84
2023/02/28 04:57:58;;;;;;;14.82;10.60;;;;;;;-0.05;100.00;-18025.94;5062547;28;20044;-83
2023/02/28 05:00:24;;;;;;;15.70;10.73;;;;;;;-0.04;100.00;-18026.34;5066259;28;20047;-84
2023/02/28 05:02:50;;;;;;;18.42;11.35;;;;;;;-0.03;100.00;-18026.47;5045525;28;20687;-82
2023/02/28 05:05:17;;;;;;;14.88;10.48;;;;;;;-0.03;100.00;-18026.47;5063676;28;20131;-82
2023/02/28 05:07:44;;;;;;;12.52;9.77;;;;;;;-0.03;100.00;-18026.63;5066559;28;20052;-83
2023/02/28 05:10:10;;;;;;;15.55;9.98;;;;;;;-0.02;100.00;-18026.75;5069884;28;20094;-83
2023/02/28 05:12:36;;;;;;;12.85;9.43;;;;;;;-0.02;100.00;-18026.75;5053134;28;20293;-83
2023/02/28 05:15:02;;;;;;;14.00;9.77;;;;;;;-0.03;100.00;-18026.63;5069652;28;20135;-84
2023/02/28 05:17:28;;;;;;;13.05;9.38;;;;;;;-0.08;100.00;-18025.09;5064619;28;20540;-84
2023/02/28 05:19:53;;;;;;;15.90;10.75;;;;;;;-0.10;100.00;-18024.69;5065408;28;20105;-84
2023/02/28 05:22:18;;;;;;;13.32;9.75;;;;;;;-0.09;100.00;-18024.94;5065361;28;20043;-86
2023/02/28 05:24:44;;;;;;;12.10;9.23;;;;;;;-0.12;100.00;-18023.97;5068697;28;20040;-84
2023/02/28 05:27:10;;;;;;;14.20;10.60;;;;;;;-0.16;100.00;-18022.88;5052419;28;20037;-85
2023/02/28 05:29:41;;;;;;;15.40;10.75;;;;;;;-0.24;100.00;-18020.94;5064479;28;20040;-85
2023/02/28 05:32:10;;;;;;;15.18;10.43;;;;;;;-0.26;100.00;-18020.25;5064285;28;20124;-84
2023/02/28 05:34:36;;;;;;;;;;;;;;;-0.32;100.00;-18018.72;5065063;28;20033;-85
2023/02/28 05:37:01;;;;;;;18.48;10.02;;;;;;;-0.43;100.00;-18015.66;5061501;28;20272;-84
2023/02/28 05:39:26;;;;;;;17.55;10.90;;;;;;;-0.45;100.00;-18015.13;5066956;28;20071;-85
2023/02/28 05:41:52;;;;;;;17.08;10.60;;;;;;;-0.45;100.00;-18015.13;5053104;28;20052;-86
2023/02/28 05:44:17;;;;;;;14.77;11.35;;;;;;;-0.49;100.00;-18014.16;5046014;28;20048;-84
2023/02/28 05:46:42;;;;;;;14.90;11.40;;;;;;;-0.48;100.00;-18014.41;5065504;28;20360;-83
2023/02/28 05:49:08;;;;;;;15.13;10.95;;;;;;;-0.50;100.00;-18013.88;5054035;28;20043;-84
2023/02/28 05:51:36;;;;;;;19.80;12.27;;;;;;;-0.52;100.00;-18013.31;5066264;28;20043;-83
2023/02/28 05:54:02;;;;;;;15.18;10.40;;;;;;;-0.58;100.00;-18011.50;5046091;28;20132;-84
2023/02/28 05:56:28;;;;;;;18.00;12.20;;;;;;;-0.73;100.00;-18007.63;5064184;28;20487;-83
2023/02/28 05:58:53;;;;;;;18.02;12.15;;;;;;;-0.66;100.00;-18009.44;5070869;28;21672;-84
2023/02/28 06:01:20;;;;;;;18.33;12.25;;;;;;;-0.66;100.00;-18009.44;5063732;28;20037;-84
2023/02/28 06:03:45;;;;;;;19.98;11.75;;;;;;;-0.65;100.00;-18009.72;5051719;28;20052;-83
2023/02/28 06:06:11;;;;;;;18.25;11.90;;;;;;;-0.74;100.00;-18007.34;5051817;28;20420;-83
2023/02/28 06:08:36;;;;;;;17.48;12.27;;;;;;;-0.78;100.00;-18006.25;5066382;28;20621;-83
2023/02/28 06:11:06;;;;;;;17.65;11.60;;;;;;;-0.78;100.00;-18006.09;5075161;28;20510;-82
2023/02/28 06:13:31;;;;;;;21.45;12.07;;;;;;;-0.83;100.00;-18004.84;5055041;28;20033;-81
2023/02/28 06:16:00;;;;;;;15.93;11.88;;;;;;;-0.82;100.00;-18005.13;5053838;28;20597;-80
2023/02/28 06:18:26;;;;;;;21.00;13.45;;;;;;;-0.85;100.00;-18004.16;5068400;28;20526;-81
2023/02/28 06:20:55;;;;;;;15.85;12.93;;;;;;;-0.88;100.00;-18003.47;5060964;28;20047;-81
2023/02/28 06:23:23;;;;;;;19.25;12.73;;;;;;;-0.93;100.00;-18002.09;5067094;28;20037;-80
2023/02/28 06:25:49;;;;;;;19.13;13.88;;;;;;;-0.97;100.00;-18001.13;5069665;28;20036;-81
2023/02/28 06:28:14;;;;;;;18.90;12.82;;;;;;;-0.98;100.00;-18000.69;5050827;28;20426;-80
2023/02/28 06:30:40;;;;;;;22.58;13.68;;;;;;;-0.98;100.00;-18000.84;5060235;28;20033;-84
2023/02/28 06:33:05;;;;;;;19.42;13.48;;;;;;;-1.01;100.00;-18000.00;5059045;28;20052;-82
2023/02/28 06:35:31;;;;;;;19.50;13.20;;;;;;;-1.03;100.00;-17999.31;5065025;28;20037;-82
2023/02/28 06:37:56;;;;;;;18.27;12.80;;;;;;;-1.04;100.00;-17999.03;5064890;28;20033;-82
2023/02/28 06:40:22;;;;;;;19.13;12.52;;;;;;;-1.15;100.00;-17996.13;5036542;28;20039;-82
2023/02/28 06:42:47;;;;;;;20.27;13.55;;;;;;;-1.17;100.00;-17995.56;5059649;28;20055;-83
2023/02/28 06:45:13;;;;;;;19.98;13.98;;;;;;;-1.21;100.00;-17994.59;5062056;28;20043;-82
2023/02/28 06:47:40;;;;;;;18.85;13.02;;;;;;;-1.23;100.00;-17994.03;5058023;28;20049;-83
2023/02/28 06:50:07;;;;;;;18.60;13.40;;;;;;;-1.23;100.00;-17994.03;5062245;28;20112;-83
2023/02/28 06:52:32;;;;;;;21.27;14.05;;;;;;;-1.29;100.00;-17992.25;5067165;28;20037;-83
2023/02/28 06:55:00;;;;;;;21.30;13.88;;;;;;;-1.30;100.00;-17992.09;5063332;28;20399;-81
2023/02/28 06:57:30;;;;;;;17.80;13.23;;;;;;;-1.37;100.00;-17990.31;5065294;28;20036;-83
2023/02/28 06:59:58;;;;;;;22.08;14.38;;;;;;;-1.37;100.00;-17990.31;5062269;28;20123;-83
2023/02/28 07:02:23;;;;;;;19.27;13.63;;;;;;;-1.38;100.00;-17989.88;5059481;28;20055;-80
2023/02/28 07:04:49;;;;;;;21.42;13.93;;;;;;;-1.35;100.00;-17990.72;5045794;28;20040;-83
2023/02/28 07:07:14;;;;;;;19.98;13.88;;;;;;;-1.34;100.00;-17991.00;5064614;28;20514;-82
2023/02/28 07:09:39;;;;;;;17.45;12.57;;;;;;;-1.34;100.00;-17991.00;5062297;28;20032;-82
2023/02/28 07:12:05;;;;;;;18.63;14.13;;;;;;;-1.29;100.00;-17992.38;5067503;28;20097;-81
2023/02/28 07:14:30;;;;;;;17.67;12.40;;;;;;;-1.29;100.00;-17992.38;5069834;28;20032;-82
2023/02/28 07:16:55;;;;;;;20.63;13.60;;;;;;;-1.31;100.00;-17991.81;5058923;28;20044;-80
2023/02/28 07:19:21;;;;;;;20.83;14.05;;;;;;;-1.28;100.00;-17992.53;5068778;28;20059;-81
2023/02/28 07:21:46;;;;;;;19.85;13.52;;;;;;;-1.28;100.00;-17992.66;5061477;28;20052;-79
2023/02/28 07:24:12;;;;;;;18.67;12.55;;;;;;;-1.25;100.00;-17993.34;5069077;28;20072;-79
2023/02/28 07:26:37;;;;;;;17.55;12.82;;;;;;;-1.25;100.00;-17993.50;5064953;28;20037;-80
2023/02/28 07:29:02;;;;;;;17.83;13.15;;;;;;;-1.26;100.00;-17993.22;5066747;28;20093;-80
2023/02/28 07:31:28;;;;;;;20.25;13.02;;;;;;;-1.09;100.00;-17997.66;5066478;28;20056;-82
2023/02/28 07:33:53;;;;;;;17.48;12.57;;;;;;;-0.88;100.00;-18003.47;5070233;28;20491;-81
2023/02/28 07:36:19;;;;;;;18.48;12.00;;;;;;;-0.75;100.00;-18007.06;5068993;28;20064;-81
2023/02/28 07:38:53;;;;;;;14.75;11.52;;;;;;;-0.63;100.00;-18010.13;5064503;28;20056;-79
2023/02/28 07:41:21;;;;;;;14.77;10.68;;;;;;;-0.60;100.00;-18010.97;5047609;28;20507;-80
2023/02/28 07:43:46;;;;;;;17.25;11.05;;;;;;;-0.58;100.00;-18011.50;5044120;28;20083;-81
2023/02/28 07:46:17;;;;;;;13.40;10.18;;;;;;;-0.55;100.00;-18012.34;5065461;28;20053;-82
2023/02/28 07:48:43;;;;;;;13.90;9.43;;;;;;;-0.46;100.00;-18014.84;5065919;28;20066;-81
2023/02/28 07:51:09;;;;;;;15.68;10.32;;;;;;;-0.42;100.00;-18015.94;5064913;28;20040;-81
2023/02/28 07:53:34;;;;;;;13.27;9.25;;;;;;;-0.37;100.00;-18017.34;5061705;28;20043;-82
2023/02/28 07:56:01;;;;;;;12.85;8.00;;;;;;;-0.35;100.00;-18017.88;5069589;28;20116;-81
2023/02/28 07:58:28;;;;;;;12.45;8.38;;;;;;;-0.25;100.00;-18020.66;5064137;28;20531;-81
2023/02/28 08:00:54;;;;;;;14.80;9.43;;;;;;;-0.13;100.00;-18023.72;5071071;28;20770;-81
2023/02/28 08:03:21;;;;;;;12.38;8.60;;;;;;;-0.15;100.00;-18023.28;5083229;28;20040;-81
2023/02/28 08:05:47;;;;;;;12.25;8.85;;;;;;;-0.05;100.00;-18025.94;5070256;28;20105;-82
2023/02/28 08:08:14;;;;;;;10.05;8.00;;;;;;;-0.01;100.00;-18027.16;5072936;28;20028;-81
2023/02/28 08:10:39;;;;;;;12.20;8.15;;;;;;;0.05;100.00;-18028.69;5067344;28;20499;-81
2023/02/28 08:13:05;;;;;;;11.07;7.15;;;;;;;0.16;100.00;-18031.75;5073284;28;20116;-81
2023/02/28 08:15:30;;;;;;;11.45;6.72;;;;;;;0.25;100.00;-18033.97;5073648;28;20040;-80
2023/02/28 08:17:56;;;;;;;9.85;6.82;;;;;;;0.31;100.00;-18035.75;5069870;28;20147;-81
2023/02/28 08:20:22;;;;;;;11.38;6.30;;;;;;;0.49;100.00;-18040.63;5075771;28;20440;-81
2023/02/28 08:22:48;;;;;;;11.65;7.18;;;;;;;0.63;100.00;-18044.50;5069973;28;20503;-81
2023/02/28 08:25:13;;;;;;;9.50;6.53;;;;;;;0.76;100.00;-18047.81;5054884;28;20081;-81
2023/02/28 08:27:39;;;;;;;8.30;5.28;;;;;;;0.90;100.00;-18051.69;5069470;28;20037;-81
2023/02/28 08:30:04;;;;;;;8.52;5.40;;;;;;;1.01;100.00;-18054.75;5055829;28;20531;-81
2023/02/28 08:32:32;;;;;;;9.00;5.38;;;;;;;1.09;100.00;-18056.94;5059781;28;20036;-80
2023/02/28 08:34:57;;;;;;;8.93;5.10;;;;;;;1.19;100.00;-18059.44;5063675;28;20060;-80
2023/02/28 08:37:23;;;;;;;7.90;4.53;;;;;;;1.26;100.00;-18061.38;5063757;28;20117;-81
2023/02/28 08:39:48;;;;;;;8.73;5.15;;;;;;;1.28;100.00;-18062.06;5071266;28;20104;-81
2023/02/28 08:42:17;;;;;;;8.02;5.60;;;;;;;1.34;100.00;-18063.59;5053376;28;20047;-80
2023/02/28 08:44:42;;;;;;;8.03;5.37;;;;;;;1.39;100.00;-18064.84;5043712;28;20041;-80
2023/02/28 08:47:07;;;;;;;8.60;5.50;;;;;;;1.46;100.00;-18066.78;5061004;28;20366;-80
2023/02/28 08:49:33;;;;;;;9.52;6.15;;;;;;;1.49;100.00;-18067.75;5059906;28;20041;-79
2023/02/28 08:51:58;;;;;;;6.82;4.95;;;;;;;1.60;100.00;-18070.66;5062432;28;20044;-79
2023/02/28 08:54:24;;;;;;;7.28;4.90;;;;;;;1.78;100.00;-18075.63;5067383;28;20036;-81
2023/02/28 08:56:50;;;;;;;7.18;4.40;;;;;;;1.83;100.00;-18076.88;5066167;28;20049;-82
2023/02/28 08:59:15;;;;;;;6.15;4.32;;;;;;;1.87;100.00;-18078.00;5070062;28;20113;-82
2023/02/28 09:01:43;;;;;;;7.03;4.95;;;;;;;1.91;100.00;-18078.97;5074292;28;20683;-82
2023/02/28 09:04:10;;;;;;;9.60;4.88;;;;;;;1.92;100.00;-18079.38;5069260;28;20116;-82
2023/02/28 09:06:36;;;;;;;7.70;4.90;;;;;;;2.05;100.00;-18082.84;5059121;28;20029;-80
2023/02/28 09:09:02;;;;;;;9.05;5.13;;;;;;;2.17;100.00;-18086.00;5066560;28;20036;-82
2023/02/28 09:11:28;;;;;;;9.05;5.15;;;;;;;2.21;100.00;-18087.25;5065287;28;20642;-82
2023/02/28 09:13:55;;;;;;;7.55;4.80;;;;;;;2.36;100.00;-18091.28;5074052;28;20051;-83
2023/02/28 09:16:21;;;;;;;8.05;5.70;;;;;;;2.49;100.00;-18094.72;5063129;28;20113;-82
2023/02/28 09:18:46;;;;;;;8.30;5.53;;;;;;;2.65;100.00;-18099.00;5072600;28;20119;-82
2023/02/28 09:21:14;;;;;;;7.60;5.57;;;;;;;2.69;100.00;-18100.13;5060972;28;20071;-82
2023/02/28 09:23:41;;;;;;;10.43;5.25;;;;;;;2.61;100.00;-18097.91;5066371;28;20036;-81
2023/02/28 09:26:07;;;;;;;8.52;5.45;;;;;;;2.71;100.00;-18100.69;5077854;28;20029;-82
2023/02/28 09:28:33;;;;;;;7.47;5.20;;;;;;;2.90;100.00;-18105.94;5065311;28;20036;-82
2023/02/28 09:30:59;;;;;;;7.78;4.65;;;;;;;3.10;100.00;-18111.31;5062589;28;20045;-82
2023/02/28 09:33:25;;;;;;;7.53;4.63;;;;;;;3.15;100.00;-18112.56;5069101;28;20040;-83
2023/02/28 09:35:57;;;;;;;7.32;4.65;;;;;;;3.25;100.00;-18115.19;5049861;28;20500;-82
2023/02/28 09:38:22;;;;;;;7.68;4.47;;;;;;;3.36;100.00;-18118.38;5063519;28;20035;-82
2023/02/28 09:40:53;;;;;;;6.93;4.65;;;;;;;3.44;100.00;-18120.44;5073839;28;20037;-82
2023/02/28 09:43:23;;;;;;;7.38;3.85;;;;;;;3.60;100.00;-18124.72;5063866;28;20036;-83
2023/02/28 09:46:02;;;;;;;6.47;4.25;;;;;;;3.74;100.00;-18128.59;5064129;28;20503;-84
2023/02/28 09:48:39;;;;;;;6.15;4.03;;;;;;;3.78;86.00;-18129.56;5059236;28;20055;-83
2023/02/28 09:51:21;;;;;;;6.95;3.08;;;;;;;3.74;90.10;-18128.59;5045038;28;20049;-82
2023/02/28 09:53:46;;;;;;;4.03;3.20;;;;;;;3.80;94.32;-18130.25;5065246;28;20037;-82
2023/02/28 09:56:25;;;;;;;3.05;2.28;;;;;;;3.91;84.04;-18133.00;5044313;28;20112;-83
2023/02/28 09:59:02;;;;;;;5.80;2.75;;;;;;;3.96;91.23;-18134.41;5064968;28;20033;-82
2023/02/28 10:02:18;;;;;;;4.05;2.83;;;;;;;4.00;85.14;-18135.50;5057729;28;20521;-82
2023/02/28 10:04:55;;;;;;;3.97;1.80;;;;;;;4.02;85.67;-18136.06;5017393;28;20149;-82
2023/02/28 10:07:34;;;;;;;3.67;2.00;;;;;;;4.15;79.88;-18139.66;5061028;28;20502;-83
2023/02/28 10:10:04;;;;;;;3.72;1.80;;;;;;;4.05;67.77;-18136.88;5062519;28;20047;-83
2023/02/28 10:12:32;;;;;;;2.63;2.05;;;;;;;4.07;72.66;-18137.44;5052019;28;20699;-83
2023/02/28 10:14:59;;;;;;;3.40;1.60;;;;;;;4.13;72.54;-18138.97;5062832;28;20545;-84
2023/02/28 10:17:39;;;;;;;3.90;1.73;;;;;;;4.18;75.28;-18140.34;5066111;28;20036;-83
2023/02/28 10:20:12;;;;;;;2.38;1.50;;;;;;;4.32;90.54;-18144.06;5040632;28;20498;-83
2023/02/28 10:22:51;;;;;;;3.05;1.90;;;;;;;4.43;73.05;-18147.09;5064007;28;20126;-83
2023/02/28 10:25:23;;;;;;;2.67;1.70;;;;;;;4.47;77.06;-18148.22;5065318;28;20032;-84
2023/02/28 10:27:49;;;;;;;3.05;1.63;;;;;;;4.49;75.99;-18148.75;5062574;28;20044;-83
2023/02/28 10:30:15;;;;;;;2.60;1.70;;;;;;;4.45;73.44;-18147.66;5072613;28;20040;-83
2023/02/28 10:32:49;;;;;;;3.80;2.15;;;;;;;4.49;77.22;-18148.75;5063043;28;20123;-84
2023/02/28 10:35:24;;;;;;;3.85;2.00;;;;;;;4.59;77.54;-18151.53;5073770;28;20096;-83
2023/02/28 10:37:55;;;;;;;4.15;1.98;;;;;;;4.53;73.28;-18149.88;5063244;28;20048;-83
2023/02/28 10:40:21;;;;;;;3.10;1.63;;;;;;;4.51;71.12;-18149.44;5067120;28;20041;-83
2023/02/28 10:42:56;;;;;;;2.50;1.70;;;;;;;4.62;79.02;-18152.34;5061382;28;20399;-83
2023/02/28 10:45:23;;;;;;;2.85;1.73;;;;;;;4.72;78.33;-18155.13;5059126;28;20044;-83
2023/02/28 10:47:53;;;;;;;3.25;1.30;;;;;;;4.62;63.03;-18152.34;5063457;28;20043;-83
2023/02/28 10:50:42;;;;;;;2.60;1.58;;;;;;;4.68;65.67;-18153.88;5063622;28;20067;-83
2023/02/28 10:53:26;;;;;;;2.00;1.30;;;;;;;4.78;74.89;-18156.50;5044597;28;20123;-83
2023/02/28 10:56:03;;;;;;;2.97;1.70;;;;;;;4.85;72.77;-18158.56;5064318;28;20454;-83
2023/02/28 10:59:00;;;;;;;2.38;1.73;;;;;;;4.85;69.60;-18158.44;5067898;28;20097;-83
2023/02/28 11:01:35;;;;;;;3.00;1.90;;;;;;;4.96;77.39;-18161.59;5025094;28;20040;-83
2023/02/28 11:04:00;;;;;;;2.90;1.67;;;;;;;4.97;73.23;-18161.75;5075066;28;20082;-83
2023/02/28 11:06:32;;;;;;;3.10;1.58;;;;;;;5.08;67.54;-18164.63;5060870;28;20109;-83
2023/02/28 11:09:06;;;;;;;2.22;1.25;;;;;;;5.11;67.59;-18165.47;5064033;28;20038;-83
2023/02/28 11:11:44;;;;;;;1.98;1.20;;;;;;;5.15;73.32;-18166.72;5077128;28;20047;-83
2023/02/28 11:14:19;;;;;;;2.25;1.50;;;;;;;5.09;62.85;-18165.06;5049781;28;20499;-83
2023/02/28 11:16:45;;;;;;;4.03;1.40;;;;;;;5.12;60.67;-18165.75;5065963;28;20045;-83
2023/02/28 11:19:24;;;;;;;3.78;1.38;;;;;;;5.11;63.04;-18165.59;5076104;28;20050;-83
2023/02/28 11:21:58;;;;;;;3.00;1.20;;;;;;;5.19;71.42;-18167.69;5065860;28;20036;-83